Time;durP1;ratioP1;P1;durP2;ratioP2;P2;SDS_P1;SDS_P2;PMS_P1;PMS_P2;Temp;Humidity;BMP_temperature;BMP_pressure;BME280_temperature;BME280_humidity;BME280_pressure;Samples;Min_cycle;Max_cycle;Signal;HPM_P1;HPM_P2
2023/01/24 00:00:04;;;;;;;;;28.50;27.00;;;;;-146.44;100.00;58906.56;5073216;27;45395;-53
2023/01/24 00:02:30;;;;;;;;;32.75;26.50;;;;;-146.44;100.00;58906.56;5062531;27;45441;-56
2023/01/24 00:04:55;;;;;;;;;25.50;25.50;;;;;-146.44;100.00;58906.56;5073210;27;45608;-62
2023/01/24 00:07:21;;;;;;;;;39.75;34.00;;;;;-146.44;100.00;58906.56;5058530;28;51627;-55
2023/01/24 00:09:46;;;;;;;;;30.00;27.50;;;;;-146.44;100.00;58906.56;5068266;27;45520;-53
2023/01/24 00:12:11;;;;;;;;;34.00;31.00;;;;;-146.44;100.00;58906.56;5070901;27;45457;-56
2023/01/24 00:14:38;;;;;;;;;34.75;28.50;;;;;-146.44;100.00;58906.56;5073387;27;45656;-56
2023/01/24 00:17:04;;;;;;;;;39.50;31.25;;;;;-146.44;100.00;58906.56;5073160;28;45995;-59
2023/01/24 00:19:31;;;;;;;;;31.75;27.75;;;;;-146.44;100.00;58906.56;5071819;27;45497;-59
2023/01/24 00:21:56;;;;;;;;;27.50;27.50;;;;;-146.44;100.00;58906.56;5069366;27;45494;-56
2023/01/24 00:24:23;;;;;;;;;29.75;29.00;;;;;-146.44;100.00;58906.56;5072742;27;45523;-55
2023/01/24 00:26:49;;;;;;;;;40.00;34.50;;;;;-146.44;100.00;58906.56;5073356;27;45520;-56
2023/01/24 00:29:15;;;;;;;;;30.00;27.00;;;;;-146.44;100.00;58906.56;5072978;28;45542;-55
2023/01/24 00:31:42;;;;;;;;;33.00;32.75;;;;;-146.44;100.00;58906.56;5063809;27;45506;-58
2023/01/24 00:34:08;;;;;;;;;34.00;28.00;;;;;-146.44;100.00;58906.56;5073208;27;45646;-59
2023/01/24 00:36:34;;;;;;;;;35.25;34.25;;;;;-146.44;100.00;58906.56;5070955;27;46814;-57
2023/01/24 00:39:01;;;;;;;;;34.50;30.25;;;;;-146.44;100.00;58906.56;5072421;27;45516;-56
2023/01/24 00:41:27;;;;;;;;;37.25;34.25;;;;;-146.44;100.00;58906.56;5076348;27;45516;-59
2023/01/24 00:43:52;;;;;;;;;37.50;34.50;;;;;-146.44;100.00;58906.56;5076699;27;45393;-57
2023/01/24 00:46:18;;;;;;;;;37.00;33.50;;;;;-146.44;100.00;58906.56;5054149;28;47022;-56
2023/01/24 00:48:43;;;;;;;;;37.75;33.50;;;;;-146.44;100.00;58906.56;5074394;28;45465;-53
2023/01/24 00:51:09;;;;;;;;;34.25;30.75;;;;;-146.44;100.00;58906.56;5075215;27;45568;-54
2023/01/24 00:53:36;;;;;;;;;39.75;33.50;;;;;-146.44;100.00;58906.56;5075285;27;45500;-61
2023/01/24 00:56:02;;;;;;;;;37.00;32.25;;;;;-146.44;100.00;58906.56;5073390;27;45493;-59
2023/01/24 00:58:27;;;;;;;;;40.25;34.00;;;;;-146.44;100.00;58906.56;5075453;27;45570;-60
2023/01/24 01:01:00;;;;;;;;;36.00;36.00;;;;;-146.44;100.00;58906.56;5075137;27;45428;-56
2023/01/24 01:03:26;;;;;;;;;37.50;34.75;;;;;-146.44;100.00;58906.56;5067049;27;45581;-54
2023/01/24 01:06:06;;;;;;;;;44.50;38.25;;;;;-146.44;100.00;58906.56;5068644;27;45651;-54
2023/01/24 01:08:33;;;;;;;;;35.00;32.50;;;;;-146.44;100.00;58906.56;5057992;28;45513;-58
2023/01/24 01:10:59;;;;;;;;;36.75;33.25;;;;;-146.44;100.00;58906.56;5068252;27;45610;-56
2023/01/24 01:13:26;;;;;;;;;37.00;35.00;;;;;-146.44;100.00;58906.56;5076326;27;45643;-58
2023/01/24 01:16:09;;;;;;;;;37.75;31.50;;;;;-146.44;100.00;58906.56;5064633;27;45993;-58
2023/01/24 01:18:35;;;;;;;;;41.50;38.25;;;;;-146.44;100.00;58906.56;5075887;27;45468;-56
2023/01/24 01:21:01;;;;;;;;;41.00;37.00;;;;;-146.44;100.00;58906.56;5075963;27;45447;-54
2023/01/24 01:23:27;;;;;;;;;36.25;35.75;;;;;-146.44;100.00;58906.56;5074460;27;45572;-56
2023/01/24 01:25:52;;;;;;;;;43.50;35.75;;;;;-146.44;100.00;58906.56;5065491;28;46194;-53
2023/01/24 01:28:18;;;;;;;;;38.75;31.25;;;;;-146.44;100.00;58906.56;5074823;27;45812;-55
2023/01/24 01:30:49;;;;;;;;;42.00;36.50;;;;;-146.44;100.00;58906.56;5075967;27;45385;-58
2023/01/24 01:33:14;;;;;;;;;38.25;31.75;;;;;-146.44;100.00;58906.56;5075781;27;45877;-55
2023/01/24 01:35:40;;;;;;;;;34.00;31.75;;;;;-146.44;100.00;58906.56;5074450;27;46035;-54
2023/01/24 01:38:05;;;;;;;;;40.50;34.00;;;;;-146.44;100.00;58906.56;5075312;27;45521;-59
2023/01/24 01:40:31;;;;;;;;;36.00;34.25;;;;;-146.44;100.00;58906.56;5073608;27;45568;-57
2023/01/24 01:42:57;;;;;;;;;45.75;39.00;;;;;-146.44;100.00;58906.56;5074194;27;45543;-54
2023/01/24 01:45:37;;;;;;;;;38.00;35.25;;;;;-146.44;100.00;58906.56;5073018;27;49110;-58
2023/01/24 01:48:17;;;;;;;;;40.25;36.75;;;;;-146.44;100.00;58906.56;5068137;27;45497;-55
2023/01/24 01:50:48;;;;;;;;;47.75;37.75;;;;;-146.44;100.00;58906.56;5074793;27;45611;-54
2023/01/24 01:53:15;;;;;;;;;45.00;37.00;;;;;-146.44;100.00;58906.56;5069466;27;45406;-59
2023/01/24 01:55:47;;;;;;;;;39.50;36.75;;;;;-146.44;100.00;58906.56;5074434;27;46313;-56
2023/01/24 01:58:14;;;;;;;;;39.75;37.75;;;;;-146.44;100.00;58906.56;5075395;27;45460;-57
2023/01/24 02:00:41;;;;;;;;;37.50;34.50;;;;;-146.44;100.00;58906.56;5075315;27;45619;-56
2023/01/24 02:05:58;;;;;;;;;45.50;41.50;;;;;-146.44;100.00;58906.56;5058335;28;45799;-58
2023/01/24 02:08:24;;;;;;;;;39.50;35.75;;;;;-146.44;100.00;58906.56;5063427;28;45528;-55
2023/01/24 02:13:43;;;;;;;;;42.00;36.25;;;;;-146.44;100.00;58906.56;5066225;28;45472;-58
2023/01/24 02:16:10;;;;;;;;;48.00;37.50;;;;;-146.44;100.00;58906.56;5071781;28;45513;-56
2023/01/24 02:18:38;;;;;;;;;41.00;38.75;;;;;-146.44;100.00;58906.56;5074914;27;45475;-59
2023/01/24 02:21:08;;;;;;;;;49.25;41.75;;;;;-146.44;100.00;58906.56;5074019;27;45488;-56
2023/01/24 02:23:53;;;;;;;;;47.00;39.50;;;;;-146.44;100.00;58906.56;5066628;27;45611;-59
2023/01/24 02:26:27;;;;;;;;;45.50;40.00;;;;;-146.44;100.00;58906.56;5070619;27;46341;-55
2023/01/24 02:29:01;;;;;;;;;38.00;34.25;;;;;-146.44;100.00;58906.56;5070321;27;45581;-56
2023/01/24 02:31:28;;;;;;;;;20.00;8.00;;;;;-146.44;100.00;58906.56;5058088;28;45486;-55
2023/01/24 02:33:53;;;;;;;;;43.25;36.00;;;;;-146.44;100.00;58906.56;5060841;28;45426;-57
2023/01/24 02:36:28;;;;;;;;;44.25;39.25;;;;;-146.44;100.00;58906.56;5071472;27;45626;-55
2023/01/24 02:39:03;;;;;;;;;43.25;37.25;;;;;-146.44;100.00;58906.56;5071493;27;45618;-57
2023/01/24 02:41:36;;;;;;;;;47.00;39.00;;;;;-146.44;100.00;58906.56;5071566;27;45543;-57
2023/01/24 02:44:08;;;;;;;;;42.00;38.25;;;;;-146.44;100.00;58906.56;5066132;27;45513;-55
2023/01/24 02:46:37;;;;;;;;;48.75;40.00;;;;;-146.44;100.00;58906.56;5074203;27;46136;-59
2023/01/24 02:49:07;;;;;;;;;41.25;36.50;;;;;-146.44;100.00;58906.56;5074513;27;45535;-58
2023/01/24 02:54:16;;;;;;;;;49.00;42.25;;;;;-146.44;100.00;58906.56;5054387;28;45698;-54
2023/01/24 02:59:26;;;;;;;;;46.25;38.50;;;;;-146.44;100.00;58906.56;5064150;27;45487;-55
2023/01/24 03:01:51;;;;;;;;;47.00;40.25;;;;;-146.44;100.00;58906.56;5067712;28;45505;-56
2023/01/24 03:04:17;;;;;;;;;39.25;37.00;;;;;-146.44;100.00;58906.56;5065747;27;45656;-53
2023/01/24 03:06:43;;;;;;;;;42.25;37.75;;;;;-146.44;100.00;58906.56;5073874;27;45907;-57
2023/01/24 03:09:18;;;;;;;;;40.25;37.75;;;;;-146.44;100.00;58906.56;5073258;27;45505;-53
2023/01/24 03:11:48;;;;;;;;;44.25;39.00;;;;;-146.44;100.00;58906.56;5073965;27;45489;-59
2023/01/24 03:36:19;;;;;;;;;44.25;40.00;;;;;-146.44;100.00;58906.56;5072120;28;45474;-55
2023/01/24 03:41:29;;;;;;;;;45.00;41.00;;;;;-146.44;100.00;58906.56;5073803;28;45519;-57
2023/01/24 03:43:54;;;;;;;;;44.75;38.50;;;;;-146.44;100.00;58906.56;5067592;27;45587;-58
2023/01/24 03:46:19;;;;;;;;;37.50;35.75;;;;;-146.44;100.00;58906.56;5073608;27;45606;-54
2023/01/24 03:48:45;;;;;;;;;55.75;43.00;;;;;-146.44;100.00;58906.56;5073676;27;48130;-54
2023/01/24 03:53:54;;;;;;;;;54.00;41.50;;;;;-146.44;100.00;58906.56;5063155;28;45831;-56
2023/01/24 03:56:19;;;;;;;;;42.75;37.00;;;;;-146.44;100.00;58906.56;5070009;27;51312;-55
2023/01/24 03:58:45;;;;;;;;;48.50;41.00;;;;;-146.44;100.00;58906.56;5073514;27;49328;-52
2023/01/24 04:01:10;;;;;;;;;47.50;40.00;;;;;-146.44;100.00;58906.56;5072677;27;45509;-55
2023/01/24 04:03:35;;;;;;;;;44.75;37.00;;;;;-146.44;100.00;58906.56;5073772;27;45941;-56
2023/01/24 04:06:01;;;;;;;;;52.50;41.75;;;;;-146.44;100.00;58906.56;5067598;28;45540;-57
2023/01/24 04:08:26;;;;;;;;;48.00;38.25;;;;;-146.44;100.00;58906.56;5072423;27;45552;-58
2023/01/24 04:10:51;;;;;;;;;48.25;39.25;;;;;-146.44;100.00;58906.56;5067900;27;45405;-58
2023/01/24 04:13:17;;;;;;;;;50.75;41.00;;;;;-146.44;100.00;58906.56;5063171;28;45496;-55
2023/01/24 04:15:42;;;;;;;;;47.00;41.25;;;;;-146.44;100.00;58906.56;5075469;27;45589;-52
2023/01/24 04:18:07;;;;;;;;;49.75;39.75;;;;;-146.44;100.00;58906.56;5075770;27;45546;-56
2023/01/24 04:20:36;;;;;;;;;53.25;42.75;;;;;-146.44;100.00;58906.56;5075045;27;45532;-58
2023/01/24 04:23:04;;;;;;;;;46.00;41.00;;;;;-146.44;100.00;58906.56;5068626;27;45458;-58
2023/01/24 04:25:30;;;;;;;;;54.25;43.00;;;;;-146.44;100.00;58906.56;5064573;27;45443;-57
2023/01/24 04:27:55;;;;;;;;;46.00;40.00;;;;;-146.44;100.00;58906.56;5076714;27;45599;-55
2023/01/24 04:30:21;;;;;;;;;50.75;40.00;;;;;-146.44;100.00;58906.56;5076747;27;45568;-57
2023/01/24 04:32:46;;;;;;;;;47.00;40.50;;;;;-146.44;100.00;58906.56;5072826;27;45541;-55
2023/01/24 04:35:17;;;;;;;;;47.50;40.50;;;;;-146.44;100.00;58906.56;5066700;27;45400;-56
2023/01/24 04:37:42;;;;;;;;;46.50;38.50;;;;;-146.44;100.00;58906.56;5076293;27;45569;-56
2023/01/24 04:40:08;;;;;;;;;48.75;40.75;;;;;-146.44;100.00;58906.56;5076150;27;45500;-57
2023/01/24 04:42:33;;;;;;;;;48.25;39.75;;;;;-146.44;100.00;58906.56;5076599;27;45506;-59
2023/01/24 04:44:59;;;;;;;;;46.75;40.50;;;;;-146.44;100.00;58906.56;5071420;27;45498;-58
2023/01/24 04:47:24;;;;;;;;;43.25;37.25;;;;;-146.44;100.00;58906.56;5076395;27;45532;-54
2023/01/24 04:49:49;;;;;;;;;43.00;39.00;;;;;-146.44;100.00;58906.56;5068830;27;45442;-56
2023/01/24 04:52:15;;;;;;;;;34.50;31.25;;;;;-146.44;100.00;58906.56;5076590;27;45435;-56
2023/01/24 04:54:40;;;;;;;;;41.25;33.50;;;;;-146.44;100.00;58906.56;5068548;27;45636;-58
2023/01/24 04:57:06;;;;;;;;;42.00;37.00;;;;;-146.44;100.00;58906.56;5064248;28;45643;-59
2023/01/24 04:59:31;;;;;;;;;45.75;38.50;;;;;-146.44;100.00;58906.56;5076097;27;45565;-60
2023/01/24 05:01:57;;;;;;;;;44.50;39.50;;;;;-146.44;100.00;58906.56;5075613;27;45548;-54
2023/01/24 05:04:22;;;;;;;;;47.25;38.25;;;;;-146.44;100.00;58906.56;5071119;27;45547;-55
2023/01/24 05:06:47;;;;;;;;;39.50;34.75;;;;;-146.44;100.00;58906.56;5073661;27;47811;-59
2023/01/24 05:09:13;;;;;;;;;46.75;39.75;;;;;-146.44;100.00;58906.56;5075136;27;45468;-56
2023/01/24 05:11:38;;;;;;;;;40.50;34.50;;;;;-146.44;100.00;58906.56;5076207;27;45497;-56
2023/01/24 05:14:03;;;;;;;;;47.25;39.25;;;;;-146.44;100.00;58906.56;5075027;27;45589;-60
2023/01/24 05:16:29;;;;;;;;;50.50;42.00;;;;;-146.44;100.00;58906.56;5074670;27;45607;-55
2023/01/24 05:18:55;;;;;;;;;41.50;37.00;;;;;-146.44;100.00;58906.56;5075630;27;45469;-50
2023/01/24 05:21:20;;;;;;;;;41.50;38.25;;;;;-146.44;100.00;58906.56;5075808;27;45618;-55
2023/01/24 05:23:51;;;;;;;;;45.75;39.50;;;;;-146.44;100.00;58906.56;5075591;27;45575;-56
2023/01/24 05:26:17;;;;;;;;;42.50;35.50;;;;;-146.44;100.00;58906.56;5065684;27;45475;-58
2023/01/24 05:28:42;;;;;;;;;42.50;39.00;;;;;-146.44;100.00;58906.56;5075630;27;45520;-56
2023/01/24 05:31:08;;;;;;;;;41.25;38.25;;;;;-146.44;100.00;58906.56;5075742;27;45496;-57
2023/01/24 05:33:35;;;;;;;;;48.25;38.75;;;;;-146.44;100.00;58906.56;5064143;27;45533;-56
2023/01/24 05:36:06;;;;;;;;;41.25;36.50;;;;;-146.44;100.00;58906.56;5057711;27;46069;-54
2023/01/24 05:38:31;;;;;;;;;39.75;30.00;;;;;-146.44;100.00;58906.56;5074561;27;45626;-57
2023/01/24 05:41:04;;;;;;;;;42.25;36.50;;;;;-146.44;100.00;58906.56;5075416;27;45908;-55
2023/01/24 05:43:30;;;;;;;;;40.00;35.25;;;;;-146.44;100.00;58906.56;5074270;27;45442;-53
2023/01/24 05:46:04;;;;;;;;;44.75;35.75;;;;;-146.44;100.00;58906.56;5073419;27;46166;-51
2023/01/24 05:48:30;;;;;;;;;43.25;37.50;;;;;-146.44;100.00;58906.56;5074043;27;45524;-54
2023/01/24 05:51:07;;;;;;;;;35.50;32.75;;;;;-146.44;100.00;58906.56;5075385;27;45643;-58
2023/01/24 05:53:35;;;;;;;;;37.25;36.50;;;;;-146.44;100.00;58906.56;5067408;27;45564;-61
2023/01/24 05:56:07;;;;;;;;;41.75;37.50;;;;;-146.44;100.00;58906.56;5072058;27;45513;-59
2023/01/24 05:58:37;;;;;;;;;38.25;36.50;;;;;-146.44;100.00;58906.56;5075074;27;45495;-58
2023/01/24 06:01:10;;;;;;;;;46.00;37.50;;;;;-146.44;100.00;58906.56;5074329;27;45520;-57
2023/01/24 06:03:40;;;;;;;;;44.50;40.00;;;;;-146.44;100.00;58906.56;5075161;27;45507;-59
2023/01/24 06:06:06;;;;;;;;;41.00;37.25;;;;;-146.44;100.00;58906.56;5074544;27;45909;-57
2023/01/24 06:08:31;;;;;;;;;44.00;39.00;;;;;-146.44;100.00;58906.56;5069048;27;45614;-58
2023/01/24 06:11:10;;;;;;;;;47.50;37.75;;;;;-146.44;100.00;58906.56;5074402;27;45484;-60
2023/01/24 06:13:36;;;;;;;;;43.25;39.75;;;;;-146.44;100.00;58906.56;5074857;27;45545;-57
2023/01/24 06:16:03;;;;;;;;;41.00;36.50;;;;;-146.44;100.00;58906.56;5072961;27;45950;-57
2023/01/24 06:18:29;;;;;;;;;39.75;36.00;;;;;-146.44;100.00;58906.56;5072753;27;45551;-60
2023/01/24 06:20:55;;;;;;;;;37.50;34.25;;;;;-146.44;100.00;58906.56;5074677;27;45533;-57
2023/01/24 06:23:28;;;;;;;;;50.75;38.75;;;;;-146.44;100.00;58906.56;5073408;28;45640;-57
2023/01/24 06:25:54;;;;;;;;;45.75;39.00;;;;;-146.44;100.00;58906.56;5074616;27;45623;-57
2023/01/24 06:28:20;;;;;;;;;40.50;37.50;;;;;-146.44;100.00;58906.56;5064902;27;45497;-58
2023/01/24 06:31:00;;;;;;;;;43.50;37.00;;;;;-146.44;100.00;58906.56;5074220;27;45637;-57
2023/01/24 06:33:36;;;;;;;;;51.50;41.25;;;;;-146.44;100.00;58906.56;5059597;27;45678;-57
2023/01/24 06:36:35;;;;;;;;;47.50;40.00;;;;;-146.44;100.00;58906.56;5071004;28;45451;-54
2023/01/24 06:39:00;;;;;;;;;44.50;38.50;;;;;-146.44;100.00;58906.56;5069173;27;46391;-57
2023/01/24 06:41:26;;;;;;;;;42.25;37.75;;;;;-146.44;100.00;58906.56;5071190;27;45426;-58
2023/01/24 06:43:54;;;;;;;;;48.75;40.75;;;;;-146.44;100.00;58906.56;5069051;27;45636;-61
2023/01/24 06:46:20;;;;;;;;;40.00;38.00;;;;;-146.44;100.00;58906.56;5068841;27;45929;-58
2023/01/24 06:48:45;;;;;;;;;47.75;40.00;;;;;-146.44;100.00;58906.56;5071288;27;49287;-56
2023/01/24 06:51:14;;;;;;;;;48.75;41.00;;;;;-146.44;100.00;58906.56;5073920;27;45579;-57
2023/01/24 06:53:40;;;;;;;;;51.50;42.75;;;;;-146.44;100.00;58906.56;5062587;27;45486;-56
2023/01/24 06:56:06;;;;;;;;;50.25;40.00;;;;;-146.44;100.00;58906.56;5074035;27;45562;-58
2023/01/24 06:58:31;;;;;;;;;41.25;36.25;;;;;-146.44;100.00;58906.56;5071256;28;46079;-55
2023/01/24 07:00:56;;;;;;;;;47.50;37.25;;;;;-146.44;100.00;58906.56;5073230;27;45438;-54
2023/01/24 07:03:22;;;;;;;;;43.75;39.50;;;;;-146.44;100.00;58906.56;5073753;27;48072;-51
2023/01/24 07:05:47;;;;;;;;;50.75;42.75;;;;;-146.44;100.00;58906.56;5071038;27;45610;-53
2023/01/24 07:08:13;;;;;;;;;47.25;38.00;;;;;-146.44;100.00;58906.56;5072736;27;45454;-55
2023/01/24 07:10:39;;;;;;;;;50.50;42.75;;;;;-146.44;100.00;58906.56;5072598;27;45623;-52
2023/01/24 07:13:05;;;;;;;;;48.50;43.50;;;;;-146.44;100.00;58906.56;5069223;27;45587;-53
2023/01/24 07:15:30;;;;;;;;;47.50;40.25;;;;;-146.44;100.00;58906.56;5073603;27;46598;-54
2023/01/24 07:17:56;;;;;;;;;58.00;45.00;;;;;-146.44;100.00;58906.56;5074070;27;45438;-55
2023/01/24 07:20:21;;;;;;;;;52.00;42.75;;;;;-146.44;100.00;58906.56;5073498;27;45456;-52
2023/01/24 07:22:47;;;;;;;;;52.00;44.00;;;;;-146.44;100.00;58906.56;5073897;27;45528;-53
2023/01/24 07:25:14;;;;;;;;;50.00;43.00;;;;;-146.44;100.00;58906.56;5072354;27;45741;-52
2023/01/24 07:27:43;;;;;;;;;57.75;46.00;;;;;-146.44;100.00;58906.56;5073485;27;45480;-55
2023/01/24 07:30:11;;;;;;;;;57.50;44.50;;;;;-146.44;100.00;58906.56;5063838;27;45758;-57
2023/01/24 07:32:36;;;;;;;;;48.25;41.75;;;;;-146.44;100.00;58906.56;5068416;27;45558;-55
2023/01/24 07:35:02;;;;;;;;;49.25;42.50;;;;;-146.44;100.00;58906.56;5060942;28;45473;-58
2023/01/24 07:37:27;;;;;;;;;52.75;43.00;;;;;-146.44;100.00;58906.56;5072724;27;45522;-58
2023/01/24 07:39:52;;;;;;;;;59.25;47.75;;;;;-146.44;100.00;58906.56;5072919;27;45585;-56
2023/01/24 07:42:18;;;;;;;;;51.50;44.50;;;;;-146.44;100.00;58906.56;5071615;28;46091;-54
2023/01/24 07:44:43;;;;;;;;;57.50;43.75;;;;;-146.44;100.00;58906.56;5072599;27;45902;-54
2023/01/24 07:47:08;;;;;;;;;51.00;44.00;;;;;-146.44;100.00;58906.56;5071409;27;46225;-56
2023/01/24 07:49:34;;;;;;;;;56.25;44.00;;;;;-146.44;100.00;58906.56;5074104;27;45640;-52
2023/01/24 07:51:59;;;;;;;;;49.75;43.50;;;;;-146.44;100.00;58906.56;5074989;28;45494;-56
2023/01/24 07:54:24;;;;;;;;;56.50;43.75;;;;;-146.44;100.00;58906.56;5076014;27;54197;-57
2023/01/24 07:56:51;;;;;;;;;51.00;44.25;;;;;-146.44;100.00;58906.56;5071608;27;45503;-54
2023/01/24 07:59:16;;;;;;;;;50.25;42.25;;;;;-146.44;100.00;58906.56;5076490;27;45531;-56
2023/01/24 08:01:41;;;;;;;;;50.00;43.75;;;;;-146.44;100.00;58906.56;5076239;27;46085;-51
2023/01/24 08:04:07;;;;;;;;;55.50;45.25;;;;;-146.44;100.00;58906.56;5075917;27;45845;-57
2023/01/24 08:06:32;;;;;;;;;55.25;44.75;;;;;-146.44;100.00;58906.56;5074267;27;45551;-58
2023/01/24 08:08:58;;;;;;;;;58.75;44.75;;;;;-146.44;100.00;58906.56;5076237;27;45393;-55
2023/01/24 08:11:23;;;;;;;;;56.00;45.25;;;;;-146.44;100.00;58906.56;5076221;27;45501;-54
2023/01/24 08:13:50;;;;;;;;;59.75;45.25;;;;;-146.44;100.00;58906.56;5075998;27;46038;-56
2023/01/24 08:16:15;;;;;;;;;50.75;41.50;;;;;-146.44;100.00;58906.56;5075970;27;45524;-51
2023/01/24 08:18:41;;;;;;;;;53.50;44.75;;;;;-146.44;100.00;58906.56;5075895;27;45435;-52
2023/01/24 08:21:07;;;;;;;;;61.50;48.25;;;;;-146.44;100.00;58906.56;5076195;27;45563;-52
2023/01/24 08:23:33;;;;;;;;;55.50;44.00;;;;;-146.44;100.00;58906.56;5075622;27;45754;-57
2023/01/24 08:26:00;;;;;;;;;52.75;43.00;;;;;-146.44;100.00;58906.56;5076085;27;45463;-54
2023/01/24 08:28:26;;;;;;;;;58.25;47.25;;;;;-146.44;100.00;58906.56;5075103;27;45568;-57
2023/01/24 08:30:51;;;;;;;;;53.75;43.00;;;;;-146.44;100.00;58906.56;5074786;27;45499;-57
2023/01/24 08:33:19;;;;;;;;;55.25;45.25;;;;;-146.44;100.00;58906.56;5067796;27;45970;-56
2023/01/24 08:35:46;;;;;;;;;53.75;45.25;;;;;-146.44;100.00;58906.56;5068532;27;45450;-56
2023/01/24 08:38:12;;;;;;;;;46.25;40.25;;;;;-146.44;100.00;58906.56;5075846;27;45501;-57
2023/01/24 08:40:37;;;;;;;;;55.00;45.00;;;;;-146.44;100.00;58906.56;5075694;27;45466;-58
2023/01/24 08:43:03;;;;;;;;;54.25;42.75;;;;;-146.44;100.00;58906.56;5075114;27;46163;-52
2023/01/24 08:45:29;;;;;;;;;60.50;48.00;;;;;-146.44;100.00;58906.56;5075077;27;48299;-57
2023/01/24 08:47:54;;;;;;;;;58.50;45.25;;;;;-146.44;100.00;58906.56;5075499;27;45498;-54
2023/01/24 08:50:21;;;;;;;;;54.50;45.25;;;;;-146.44;100.00;58906.56;5075627;27;45455;-55
2023/01/24 08:52:47;;;;;;;;;55.50;42.75;;;;;-146.44;100.00;58906.56;5075414;27;46251;-55
2023/01/24 08:55:12;;;;;;;;;63.25;49.00;;;;;-146.44;100.00;58906.56;5074322;27;45482;-54
2023/01/24 08:57:38;;;;;;;;;55.25;46.25;;;;;-146.44;100.00;58906.56;5074952;27;45532;-52
2023/01/24 09:00:04;;;;;;;;;54.00;40.00;;;;;-146.44;100.00;58906.56;5075054;27;45715;-54
2023/01/24 09:02:32;;;;;;;;;50.50;42.00;;;;;-146.44;100.00;58906.56;5075128;27;45506;-54
2023/01/24 09:04:57;;;;;;;;;55.25;43.75;;;;;-146.44;100.00;58906.56;5074809;27;45512;-55
2023/01/24 09:07:23;;;;;;;;;53.25;45.00;;;;;-146.44;100.00;58906.56;5075354;27;45503;-55
2023/01/24 09:09:49;;;;;;;;;55.25;45.00;;;;;-146.44;100.00;58906.56;5075233;27;45540;-53
2023/01/24 09:12:15;;;;;;;;;54.00;45.00;;;;;-146.44;100.00;58906.56;5075129;27;46474;-54
2023/01/24 09:14:40;;;;;;;;;56.00;45.50;;;;;-146.44;100.00;58906.56;5075175;27;46272;-58
2023/01/24 09:17:06;;;;;;;;;59.25;45.75;;;;;-146.44;100.00;58906.56;5074385;27;45528;-53
2023/01/24 09:19:31;;;;;;;;;54.75;45.25;;;;;-146.44;100.00;58906.56;5075099;27;45434;-54
2023/01/24 09:21:56;;;;;;;;;48.00;40.25;;;;;-146.44;100.00;58906.56;5074495;27;45445;-53
2023/01/24 09:24:23;;;;;;;;;60.25;46.25;;;;;-146.44;100.00;58906.56;5074867;27;45480;-53
2023/01/24 09:26:50;;;;;;;;;50.25;41.75;;;;;-146.44;100.00;58906.56;5073841;27;45632;-54
2023/01/24 09:29:15;;;;;;;;;57.25;47.25;;;;;-146.44;100.00;58906.56;5074024;27;45468;-55
2023/01/24 09:31:40;;;;;;;;;57.25;45.75;;;;;-146.44;100.00;58906.56;5074673;27;49706;-53
2023/01/24 09:34:05;;;;;;;;;50.75;40.50;;;;;-146.44;100.00;58906.56;5060118;27;47527;-50
2023/01/24 09:36:31;;;;;;;;;57.25;45.50;;;;;-146.44;100.00;58906.56;5074612;27;45555;-54
2023/01/24 09:38:57;;;;;;;;;53.50;44.75;;;;;-146.44;100.00;58906.56;5074809;27;45538;-56
2023/01/24 09:41:50;;;;;;;;;54.75;45.25;;;;;-146.44;100.00;58906.56;5074465;27;46442;-55
2023/01/24 09:44:34;;;;;;;;;51.75;42.25;;;;;-146.44;100.00;58906.56;5074375;27;45627;-54
2023/01/24 09:47:06;;;;;;;;;51.50;43.75;;;;;-146.44;100.00;58906.56;5074818;27;45559;-53
2023/01/24 09:49:42;;;;;;;;;54.75;44.75;;;;;-146.44;100.00;58906.56;5074713;27;45507;-53
2023/01/24 09:52:17;;;;;;;;;57.50;47.25;;;;;-146.44;100.00;58906.56;5074248;27;46176;-55
2023/01/24 09:55:00;;;;;;;;;57.50;45.00;;;;;-146.44;100.00;58906.56;5073058;27;45618;-54
2023/01/24 09:57:32;;;;;;;;;57.75;46.00;;;;;-146.44;100.00;58906.56;5072726;27;45520;-57
2023/01/24 10:00:09;;;;;;;;;56.00;47.00;;;;;-146.44;100.00;58906.56;5074139;27;45542;-54
2023/01/24 10:02:35;;;;;;;;;47.00;39.50;;;;;-146.44;100.00;58906.56;5074092;27;45590;-56
2023/01/24 10:05:00;;;;;;;;;58.00;46.25;;;;;-146.44;100.00;58906.56;5073689;27;45535;-55
2023/01/24 10:07:44;;;;;;;;;56.25;44.75;;;;;-146.44;100.00;58906.56;5074255;27;45480;-52
2023/01/24 10:10:36;;;;;;;;;61.25;47.75;;;;;-146.44;100.00;58906.56;5074319;27;45497;-51
2023/01/24 10:13:37;;;;;;;;;56.50;47.25;;;;;-146.44;100.00;58906.56;5072767;27;45437;-53
2023/01/24 10:16:30;;;;;;;;;52.25;41.75;;;;;-146.44;100.00;58906.56;5063999;28;45501;-52
2023/01/24 10:19:11;;;;;;;;;53.75;44.00;;;;;-146.44;100.00;58906.56;5072626;27;45418;-56
2023/01/24 10:21:54;;;;;;;;;56.25;45.50;;;;;-146.44;100.00;58906.56;5074198;27;45561;-56
2023/01/24 10:24:29;;;;;;;;;58.25;46.75;;;;;-146.44;100.00;58906.56;5060626;27;47365;-55
2023/01/24 10:26:55;;;;;;;;;54.25;44.25;;;;;-146.44;100.00;58906.56;5072471;27;45537;-54
2023/01/24 10:29:30;;;;;;;;;54.50;43.50;;;;;-146.44;100.00;58906.56;5073983;27;45565;-55
2023/01/24 10:31:58;;;;;;;;;47.50;41.25;;;;;-146.44;100.00;58906.56;5073700;27;45578;-57
2023/01/24 10:34:35;;;;;;;;;48.00;41.75;;;;;-146.44;100.00;58906.56;5059409;27;46514;-51
2023/01/24 10:37:06;;;;;;;;;61.25;49.50;;;;;-146.44;100.00;58906.56;5073767;27;45503;-58
2023/01/24 10:39:31;;;;;;;;;50.00;40.50;;;;;-146.44;100.00;58906.56;5072407;27;45713;-58
2023/01/24 10:41:57;;;;;;;;;48.25;41.50;;;;;-146.44;100.00;58906.56;5073892;27;45406;-57
2023/01/24 10:44:28;;;;;;;;;53.75;43.00;;;;;-146.44;100.00;58906.56;5071914;27;48116;-57
2023/01/24 10:47:05;;;;;;;;;50.00;40.50;;;;;-146.44;100.00;58906.56;5073535;27;45452;-56
2023/01/24 10:49:35;;;;;;;;;52.25;40.75;;;;;-146.44;100.00;58906.56;5073565;27;45575;-57
2023/01/24 10:52:10;;;;;;;;;45.25;41.00;;;;;-146.44;100.00;58906.56;5073566;27;45650;-58
2023/01/24 10:54:47;;;;;;;;;51.75;42.50;;;;;-146.44;100.00;58906.56;5073211;27;45502;-53
2023/01/24 10:57:46;;;;;;;;;61.50;48.25;;;;;-146.44;100.00;58906.56;5071909;27;45558;-58
2023/01/24 11:00:14;;;;;;;;;58.00;45.25;;;;;-146.44;100.00;58906.56;5058322;28;45699;-56
2023/01/24 11:02:40;;;;;;;;;56.75;45.50;;;;;-146.44;100.00;58906.56;5073587;28;45461;-54
2023/01/24 11:05:11;;;;;;;;;45.75;41.50;;;;;-146.44;100.00;58906.56;5072909;27;46227;-54
2023/01/24 11:07:38;;;;;;;;;58.00;48.00;;;;;-146.44;100.00;58906.56;5073389;27;45574;-59
2023/01/24 11:10:14;;;;;;;;;54.75;44.50;;;;;-146.44;100.00;58906.56;5071897;27;45517;-54
2023/01/24 11:12:56;;;;;;;;;52.50;43.25;;;;;-146.44;100.00;58906.56;5073178;27;45494;-53
2023/01/24 11:15:26;;;;;;;;;42.25;37.75;;;;;-146.44;100.00;58906.56;5073081;27;46109;-53
2023/01/24 11:17:58;;;;;;;;;53.75;44.00;;;;;-146.44;100.00;58906.56;5072905;27;45634;-58
2023/01/24 11:20:32;;;;;;;;;59.00;45.00;;;;;-146.44;100.00;58906.56;5071527;27;45532;-56
2023/01/24 11:23:20;;;;;;;;;57.25;44.75;;;;;-146.44;100.00;58906.56;5072363;27;45623;-56
2023/01/24 11:25:56;;;;;;;;;54.75;42.50;;;;;-146.44;100.00;58906.56;5072618;27;45566;-56
2023/01/24 11:28:27;;;;;;;;;47.75;40.75;;;;;-146.44;100.00;58906.56;5072888;27;45517;-58
2023/01/24 11:30:56;;;;;;;;;53.75;43.75;;;;;-146.44;100.00;58906.56;5059186;28;45522;-56
2023/01/24 11:33:39;;;;;;;;;42.00;36.25;;;;;-146.44;100.00;58906.56;5062870;27;45517;-54
2023/01/24 11:36:23;;;;;;;;;44.50;37.75;;;;;-146.44;100.00;58906.56;5069608;27;46083;-54
2023/01/24 11:38:51;;;;;;;;;56.50;42.00;;;;;-146.44;100.00;58906.56;5072772;27;45600;-56